createdAt,value
2023-03-13T00:03:59.735Z,8.80
2023-03-13T00:09:26.744Z,10.60
2023-03-13T00:14:50.742Z,10.75
2023-03-13T00:20:23.735Z,8.52
2023-03-13T00:25:48.790Z,10.40
2023-03-13T00:31:20.850Z,9.57
2023-03-13T00:36:48.747Z,11.25
2023-03-13T00:42:13.724Z,7.93
2023-03-13T00:47:39.784Z,9.93
2023-03-13T00:53:06.774Z,12.82
2023-03-13T00:58:33.737Z,9.23
2023-03-13T01:04:00.803Z,10.32
2023-03-13T01:09:28.731Z,9.75
2023-03-13T01:14:52.985Z,11.07
2023-03-13T01:20:19.791Z,9.18
2023-03-13T01:25:57.510Z,10.50
2023-03-13T01:37:05.777Z,10.45
2023-03-13T01:42:32.770Z,10.18
2023-03-13T01:47:57.753Z,12.32
2023-03-13T01:53:36.798Z,8.85
2023-03-13T01:59:10.786Z,12.20
2023-03-13T02:04:37.795Z,12.95
2023-03-13T02:10:05.999Z,11.48
2023-03-13T02:15:36.049Z,13.30
2023-03-13T02:21:05.803Z,9.23
2023-03-13T02:26:32.871Z,11.20
2023-03-13T02:31:58.775Z,9.68
2023-03-13T02:37:37.828Z,9.98
2023-03-13T02:43:12.807Z,10.27
2023-03-13T02:48:47.074Z,11.18
2023-03-13T02:54:26.788Z,12.25
2023-03-13T03:00:04.825Z,8.73
2023-03-13T03:05:51.842Z,9.75
2023-03-13T03:11:18.070Z,9.50
2023-03-13T03:16:52.913Z,8.85
2023-03-13T03:22:19.806Z,9.23
2023-03-13T03:27:45.822Z,9.55
2023-03-13T03:33:18.892Z,12.70
2023-03-13T03:38:42.833Z,11.23
2023-03-13T03:44:09.809Z,9.93
2023-03-13T03:49:48.025Z,8.43
2023-03-13T03:55:14.878Z,9.68
2023-03-13T11:27:13.193Z,1.10
2023-03-13T11:32:48.115Z,0.52
2023-03-13T11:38:14.080Z,1.05
2023-03-13T11:43:53.148Z,0.30
2023-03-13T11:49:36.104Z,1.45
2023-03-13T11:55:13.068Z,0.55
2023-03-13T12:00:50.144Z,0.82
2023-03-13T12:06:28.371Z,0.32
2023-03-13T12:11:57.096Z,0.95
2023-03-13T12:17:32.110Z,0.70
2023-03-13T12:23:02.081Z,0.70
2023-03-13T12:28:45.541Z,0.85
2023-03-13T12:34:22.128Z,0.95
2023-03-13T12:39:54.391Z,0.38
2023-03-13T12:45:26.263Z,0.47
2023-03-13T12:51:07.141Z,0.90
2023-03-13T12:56:47.120Z,1.15
2023-03-13T13:02:31.165Z,0.80
2023-03-13T13:08:06.354Z,0.35
2023-03-13T13:13:56.451Z,0.30
2023-03-13T13:19:51.183Z,1.10
2023-03-13T13:25:38.169Z,0.63
2023-03-13T13:31:06.245Z,0.70
2023-03-13T13:37:03.189Z,0.63
2023-03-13T13:42:59.178Z,1.50
2023-03-13T13:48:39.203Z,3.40
2023-03-13T13:54:07.261Z,1.05
2023-03-13T13:59:55.210Z,2.03
2023-03-13T14:05:31.289Z,0.60
2023-03-13T14:10:58.344Z,0.98
2023-03-13T14:16:35.285Z,0.93
2023-03-13T14:22:00.149Z,1.13
2023-03-13T14:27:34.192Z,1.42
2023-03-13T14:33:03.261Z,1.00
2023-03-13T14:38:37.272Z,0.50
2023-03-13T14:44:02.228Z,1.00
2023-03-13T14:49:40.335Z,0.80
2023-03-13T14:55:09.200Z,1.17
2023-03-13T15:00:56.257Z,0.68
2023-03-13T15:06:32.189Z,2.50
2023-03-13T15:12:09.853Z,1.25
2023-03-13T15:23:01.334Z,1.13
2023-03-13T15:28:30.664Z,2.83
2023-03-13T15:34:11.410Z,1.30
2023-03-13T15:40:16.282Z,2.15
2023-03-13T15:45:41.769Z,1.10
2023-03-13T15:51:09.337Z,1.10
2023-03-13T15:56:40.862Z,1.30
2023-03-13T16:02:05.289Z,1.52
2023-03-13T16:07:33.339Z,1.50
2023-03-13T16:13:02.785Z,1.67
2023-03-13T16:18:50.338Z,1.15
2023-03-13T16:24:17.273Z,2.10
2023-03-13T16:29:47.440Z,2.67
2023-03-13T16:35:14.400Z,2.58
2023-03-13T16:40:42.762Z,1.67
2023-03-13T16:46:14.390Z,2.22
2023-03-13T16:51:43.907Z,1.90
2023-03-13T16:57:11.352Z,0.82
2023-03-13T17:02:38.357Z,2.63
2023-03-13T17:08:05.352Z,0.95
2023-03-13T17:13:36.041Z,2.28
2023-03-13T17:19:06.258Z,1.70
2023-03-13T17:24:32.339Z,3.20
2023-03-13T17:30:04.912Z,3.97
2023-03-13T20:59:02.453Z,0.70
2023-03-13T21:04:27.415Z,0.93
2023-03-13T21:09:51.570Z,0.63
2023-03-13T21:15:26.406Z,0.93
2023-03-13T21:20:51.519Z,1.38
2023-03-13T21:26:15.456Z,1.65
2023-03-13T21:31:43.486Z,0.60
2023-03-13T21:37:09.398Z,4.32
2023-03-13T21:42:35.500Z,0.82
2023-03-13T21:48:03.483Z,1.08
2023-03-13T21:53:28.425Z,0.90
2023-03-13T21:59:00.470Z,2.00
2023-03-13T22:04:28.394Z,1.58
2023-03-13T22:09:52.507Z,0.95
2023-03-13T22:15:19.469Z,1.00
2023-03-13T22:20:46.493Z,0.63
2023-03-13T22:26:11.478Z,0.40
2023-03-13T22:31:35.473Z,1.35
2023-03-13T22:37:03.744Z,1.00
2023-03-13T22:42:27.482Z,0.30
2023-03-13T22:47:52.503Z,0.63
2023-03-13T22:53:21.441Z,0.77
2023-03-13T22:58:47.479Z,0.32
2023-03-13T23:04:11.535Z,0.77
2023-03-13T23:09:44.830Z,1.40
2023-03-13T23:15:26.538Z,2.83
2023-03-13T23:20:55.756Z,0.38
2023-03-13T23:26:28.513Z,0.30
2023-03-13T23:31:56.538Z,1.23
2023-03-13T23:37:27.451Z,0.50
2023-03-13T23:42:54.525Z,0.20
2023-03-13T23:48:22.516Z,0.30
2023-03-13T23:53:48.456Z,0.68
2023-03-13T23:59:13.521Z,0.30
